Bo'ness, United Kingdom
Current Conditions -  °F | °C
As of 2:20 AM on Monday 26 Jan 2015 (Local Time) from EGPH Reporting Station
Broken Clouds Broken Clouds  
Wind Chill: 38°   Ceiling: 3700
Heat Index: 45°   Visibility: 6mi
Dew Point: 41°   Wind: 13mph
Humidity: 87%   Direction: 250°WSW
Pressure: 29.97"   Gusts: NA
Location:  56.02°N, 3.61°W
Report Text: EGPH 260220Z 25011KT 9999 BKN037 07/05 Q1015
Loading
Personal Weather Stations






























Interactive Weather Map New forecast layout! Learn more

10-Day Weather Forecast

Advertisements
Track Severe Weather on mobile